Time;durP1;ratioP1;P1;durP2;ratioP2;P2;SDS_P1;SDS_P2;PMS_P1;PMS_P2;Temp;Humidity;BMP_temperature;BMP_pressure;BME280_temperature;BME280_humidity;BME280_pressure;Samples;Min_cycle;Max_cycle;Signal;HPM_P1;HPM_P2
2023/03/07 00:00:29;;;;;;;11.23;7.82;;;7.70;70.80;;;;;;4993650;28;20038;-50
2023/03/07 00:02:57;;;;;;;11.60;7.00;;;7.70;70.90;;;;;;4992973;28;20714;-51
2023/03/07 00:05:24;;;;;;;11.05;7.45;;;7.80;70.80;;;;;;4993220;28;20050;-52
2023/03/07 00:07:54;;;;;;;9.68;7.28;;;7.80;71.00;;;;;;4991555;28;20046;-52
2023/03/07 00:10:21;;;;;;;9.45;6.82;;;7.80;71.00;;;;;;4993244;28;20053;-53
2023/03/07 00:12:47;;;;;;;11.30;7.05;;;7.80;71.10;;;;;;4992734;28;20427;-53
2023/03/07 00:15:14;;;;;;;10.32;6.70;;;7.80;71.10;;;;;;4986701;28;20122;-53
2023/03/07 00:17:41;;;;;;;8.95;6.60;;;7.80;71.10;;;;;;4993404;28;20529;-51
2023/03/07 00:20:10;;;;;;;8.18;6.60;;;7.80;71.20;;;;;;4992847;28;20046;-50
2023/03/07 00:22:40;;;;;;;8.57;6.60;;;7.80;71.20;;;;;;4986804;28;20045;-53
2023/03/07 00:25:15;;;;;;;9.10;6.93;;;7.80;71.20;;;;;;4994140;28;20121;-52
2023/03/07 00:27:44;;;;;;;9.45;7.18;;;7.80;71.50;;;;;;4993617;28;20518;-51
2023/03/07 00:30:13;;;;;;;8.18;6.55;;;7.90;71.50;;;;;;4968431;28;20046;-53
2023/03/07 00:32:39;;;;;;;8.77;6.45;;;7.80;71.30;;;;;;4974690;28;20034;-52
2023/03/07 00:35:09;;;;;;;8.77;6.78;;;7.90;71.30;;;;;;4974210;28;20113;-54
2023/03/07 00:37:35;;;;;;;8.75;6.70;;;7.90;71.50;;;;;;4974528;28;20039;-53
2023/03/07 00:40:02;;;;;;;8.70;6.20;;;7.90;71.50;;;;;;4990337;28;20503;-51
2023/03/07 00:42:31;;;;;;;7.78;5.68;;;7.80;71.50;;;;;;4988982;28;20042;-53
2023/03/07 00:45:00;;;;;;;11.23;5.78;;;7.90;71.70;;;;;;4975112;28;20042;-54
2023/03/07 00:47:29;;;;;;;6.45;5.20;;;7.90;71.70;;;;;;4970412;28;20055;-52
2023/03/07 00:49:56;;;;;;;7.07;5.63;;;7.90;71.70;;;;;;4968803;28;20042;-53
2023/03/07 00:52:22;;;;;;;5.85;4.78;;;7.90;71.70;;;;;;4971219;28;20097;-53
2023/03/07 00:54:49;;;;;;;6.22;5.07;;;7.90;71.70;;;;;;5021708;22;20068;-48
2023/03/07 00:57:17;;;;;;;6.60;5.38;;;7.90;71.80;;;;;;5024303;28;20557;-53
2023/03/07 00:59:45;;;;;;;6.45;5.03;;;7.90;71.90;;;;;;5020494;28;20041;-51
2023/03/07 01:02:14;;;;;;;7.03;5.80;;;7.90;72.00;;;;;;5028975;28;20037;-51
2023/03/07 01:04:41;;;;;;;7.32;5.30;;;7.90;72.10;;;;;;5028679;28;20087;-50
2023/03/07 01:07:08;;;;;;;7.03;5.57;;;7.90;72.10;;;;;;5011493;28;20065;-49
2023/03/07 01:09:37;;;;;;;7.18;5.05;;;7.90;72.10;;;;;;5010048;28;20064;-51
2023/03/07 01:12:06;;;;;;;7.07;5.07;;;8.00;72.20;;;;;;5010912;28;20053;-52
2023/03/07 01:14:32;;;;;;;5.97;4.35;;;7.90;72.00;;;;;;5005564;28;20052;-53
2023/03/07 01:16:59;;;;;;;5.40;4.43;;;7.90;71.90;;;;;;5015155;28;20048;-50
2023/03/07 01:19:29;;;;;;;5.45;4.30;;;7.90;71.90;;;;;;5011117;28;20046;-50
2023/03/07 01:21:55;;;;;;;6.80;4.70;;;7.90;71.90;;;;;;4998096;28;20049;-50
2023/03/07 01:24:25;;;;;;;5.70;4.50;;;7.90;71.90;;;;;;5019490;28;20049;-49
2023/03/07 01:26:51;;;;;;;4.25;3.85;;;7.90;71.90;;;;;;5025413;28;20414;-49
2023/03/07 01:29:19;;;;;;;6.38;4.07;;;7.90;72.10;;;;;;4991013;28;20050;-52
2023/03/07 01:31:45;;;;;;;4.50;3.72;;;7.90;72.10;;;;;;5020061;28;20068;-49
2023/03/07 01:34:14;;;;;;;6.28;4.18;;;7.90;72.10;;;;;;5029580;28;20478;-49
2023/03/07 01:36:50;;;;;;;4.50;3.78;;;7.90;72.40;;;;;;5032910;28;20050;-51
2023/03/07 01:39:22;;;;;;;5.75;4.53;;;7.90;72.80;;;;;;5018263;28;20073;-50
2023/03/07 01:41:57;;;;;;;4.20;3.80;;;7.80;73.10;;;;;;5004283;28;20104;-52
2023/03/07 01:44:27;;;;;;;5.05;3.88;;;7.80;72.40;;;;;;5011408;28;20471;-53
2023/03/07 01:46:59;;;;;;;5.63;4.15;;;7.90;72.50;;;;;;5015804;28;20617;-53
2023/03/07 01:49:41;;;;;;;4.13;3.55;;;7.90;72.70;;;;;;4995173;28;20054;-50
2023/03/07 01:52:30;;;;;;;5.25;3.75;;;7.80;72.80;;;;;;4995187;28;20099;-49
2023/03/07 01:55:05;;;;;;;6.45;4.18;;;8.00;73.40;;;;;;5019516;28;20437;-52
2023/03/07 01:57:40;;;;;;;;;;;7.80;72.70;;;;;;5015987;28;20738;-49
2023/03/07 02:00:15;;;;;;;4.75;3.63;;;7.90;73.30;;;;;;5001606;28;19968;-50
2023/03/07 02:03:25;;;;;;;3.95;3.55;;;7.90;72.30;;;;;;5013688;28;20548;-53
2023/03/07 02:06:01;;;;;;;4.30;3.30;;;7.80;73.00;;;;;;5008095;28;20129;-54
2023/03/07 02:08:33;;;;;;;3.72;3.30;;;7.90;72.40;;;;;;5009345;28;20085;-51
2023/03/07 02:11:00;;;;;;;5.53;3.60;;;7.80;72.40;;;;;;5014365;28;20045;-49
2023/03/07 02:13:29;;;;;;;3.90;3.35;;;7.80;72.50;;;;;;5013115;28;20061;-52
2023/03/07 02:16:02;;;;;;;4.13;3.53;;;7.80;72.60;;;;;;4993686;28;20052;-50
2023/03/07 02:18:32;;;;;;;4.18;3.78;;;7.80;72.90;;;;;;5011517;28;20091;-48
2023/03/07 02:21:14;;;;;;;5.70;4.40;;;7.80;73.00;;;;;;5003343;28;20050;-49
2023/03/07 02:23:59;;;;;;;4.60;3.13;;;7.80;73.60;;;;;;5012139;28;20068;-53
2023/03/07 02:26:31;;;;;;;3.67;3.30;;;7.80;73.00;;;;;;5031964;28;20544;-48
2023/03/07 02:29:00;;;;;;;4.95;3.78;;;7.80;72.90;;;;;;5031875;28;20510;-50
2023/03/07 02:31:28;;;;;;;5.07;3.50;;;7.80;72.80;;;;;;4994802;28;20046;-50
2023/03/07 02:34:02;;;;;;;4.45;3.55;;;7.70;72.80;;;;;;5012226;28;20522;-52
2023/03/07 02:36:35;;;;;;;5.57;3.95;;;7.80;72.90;;;;;;5014384;28;20423;-49
2023/03/07 02:39:13;;;;;;;4.43;3.70;;;7.70;73.20;;;;;;5012139;28;20042;-50
2023/03/07 02:41:40;;;;;;;7.22;4.63;;;7.70;72.90;;;;;;5011365;28;20064;-50
2023/03/07 02:44:15;;;;;;;7.15;5.03;;;7.80;73.10;;;;;;5013199;28;20111;-50
2023/03/07 02:46:46;;;;;;;7.30;6.10;;;7.80;73.20;;;;;;5029500;28;20045;-49
2023/03/07 02:49:16;;;;;;;9.23;7.22;;;7.80;73.30;;;;;;5002158;28;20045;-52
2023/03/07 02:51:46;;;;;;;9.38;6.80;;;7.70;73.30;;;;;;5005445;28;20478;-50
2023/03/07 02:54:16;;;;;;;8.27;5.95;;;7.80;73.40;;;;;;5012539;28;20072;-52
2023/03/07 02:56:43;;;;;;;8.32;5.35;;;7.80;73.60;;;;;;5026691;28;20048;-52
2023/03/07 02:59:17;;;;;;;5.65;4.88;;;7.80;73.60;;;;;;5010218;28;20042;-52
2023/03/07 03:01:46;;;;;;;6.43;5.03;;;7.70;73.60;;;;;;5029596;28;20041;-52
2023/03/07 03:04:15;;;;;;;5.63;4.85;;;7.70;73.70;;;;;;5030553;28;20042;-54
2023/03/07 03:06:47;;;;;;;8.05;5.82;;;7.80;73.80;;;;;;5000973;28;20045;-53
2023/03/07 03:09:18;;;;;;;7.73;5.83;;;7.80;73.60;;;;;;4996792;28;20410;-49
2023/03/07 03:11:49;;;;;;;9.30;6.95;;;7.80;73.70;;;;;;5029213;28;20053;-51
2023/03/07 03:14:20;;;;;;;9.35;6.88;;;7.80;73.70;;;;;;5010859;28;20560;-48
2023/03/07 03:16:51;;;;;;;9.77;7.30;;;7.70;73.50;;;;;;5004680;28;20034;-49
2023/03/07 03:19:18;;;;;;;11.20;7.90;;;7.80;73.70;;;;;;5013266;28;20049;-50
2023/03/07 03:21:47;;;;;;;11.20;7.47;;;7.80;73.70;;;;;;4993996;28;20539;-51
2023/03/07 03:24:17;;;;;;;11.23;8.20;;;7.70;73.60;;;;;;5006901;28;20095;-51
2023/03/07 03:26:45;;;;;;;11.10;8.23;;;7.80;73.60;;;;;;5012916;28;20076;-50
2023/03/07 03:29:12;;;;;;;10.88;7.38;;;7.70;73.60;;;;;;5010378;28;20093;-49
2023/03/07 03:31:40;;;;;;;9.68;7.40;;;7.70;73.70;;;;;;5021915;28;20045;-49
2023/03/07 03:34:07;;;;;;;12.20;8.25;;;7.70;73.70;;;;;;5012228;28;20413;-51
2023/03/07 03:36:33;;;;;;;13.93;8.68;;;7.70;73.60;;;;;;5013167;28;20044;-51
2023/03/07 03:39:09;;;;;;;11.05;7.97;;;7.70;73.70;;;;;;5000335;28;20042;-48
2023/03/07 03:41:43;;;;;;;10.25;7.38;;;7.70;73.70;;;;;;5017236;28;20574;-50
2023/03/07 03:44:12;;;;;;;10.82;8.23;;;7.70;73.60;;;;;;5012040;28;20057;-49
2023/03/07 03:46:39;;;;;;;9.73;7.57;;;7.70;74.20;;;;;;5030662;28;20052;-50
2023/03/07 03:49:11;;;;;;;11.32;8.05;;;7.70;73.50;;;;;;4992399;28;20049;-51
2023/03/07 03:51:43;;;;;;;10.68;8.02;;;7.70;73.60;;;;;;5001949;28;20050;-52
2023/03/07 03:54:13;;;;;;;11.18;7.90;;;7.70;73.70;;;;;;5010374;28;20049;-50
2023/03/07 03:56:40;;;;;;;11.27;8.32;;;7.70;73.50;;;;;;5025060;28;20037;-54
2023/03/07 03:59:07;;;;;;;10.13;7.93;;;7.60;73.50;;;;;;5016648;28;20045;-50
2023/03/07 04:01:36;;;;;;;12.05;8.45;;;7.60;73.70;;;;;;5008378;28;20770;-51
2023/03/07 04:04:03;;;;;;;9.02;7.35;;;7.70;73.70;;;;;;5029440;28;20418;-49
2023/03/07 04:06:35;;;;;;;11.40;8.27;;;7.60;73.70;;;;;;4993083;28;20132;-52
2023/03/07 04:09:10;;;;;;;13.45;8.55;;;7.60;74.40;;;;;;5015328;28;20548;-50
2023/03/07 04:11:41;;;;;;;11.85;8.57;;;7.60;73.70;;;;;;4994791;28;20042;-49
2023/03/07 04:14:10;;;;;;;10.40;8.80;;;7.60;73.70;;;;;;5009928;28;20060;-50
2023/03/07 04:16:36;;;;;;;12.18;8.60;;;7.60;73.90;;;;;;4995966;28;20038;-49
2023/03/07 04:19:07;;;;;;;11.32;8.73;;;7.60;73.90;;;;;;5014828;28;20088;-51
2023/03/07 04:21:36;;;;;;;10.25;8.43;;;7.60;73.90;;;;;;4991919;28;20038;-50
2023/03/07 04:24:03;;;;;;;9.15;7.88;;;7.60;73.90;;;;;;4997473;28;20111;-51
2023/03/07 04:26:32;;;;;;;10.68;7.95;;;7.50;73.90;;;;;;5003347;28;20465;-52
2023/03/07 04:29:03;;;;;;;11.07;8.52;;;7.50;74.00;;;;;;4997389;28;20053;-50
2023/03/07 04:31:39;;;;;;;12.10;9.35;;;7.50;74.10;;;;;;5008277;28;20682;-51
2023/03/07 04:34:06;;;;;;;13.18;8.95;;;7.50;74.10;;;;;;4996231;28;20049;-53
2023/03/07 04:36:33;;;;;;;10.70;8.55;;;7.50;74.30;;;;;;4996230;28;20042;-53
2023/03/07 04:39:02;;;;;;;10.82;8.32;;;7.50;74.10;;;;;;4996184;28;20083;-51
2023/03/07 04:41:29;;;;;;;10.32;8.40;;;7.50;74.10;;;;;;5008122;28;20073;-51
2023/03/07 04:44:03;;;;;;;13.32;9.85;;;7.50;74.10;;;;;;4996093;28;20041;-52
2023/03/07 04:46:32;;;;;;;9.98;7.82;;;7.50;74.20;;;;;;5013043;28;20116;-52
2023/03/07 04:49:03;;;;;;;10.90;8.15;;;7.50;74.20;;;;;;5004735;28;20045;-49
2023/03/07 04:51:32;;;;;;;10.57;8.18;;;7.50;74.30;;;;;;5000286;28;20073;-50
2023/03/07 04:54:01;;;;;;;11.50;8.68;;;7.50;74.10;;;;;;4982355;28;20053;-50
2023/03/07 04:56:28;;;;;;;13.88;9.15;;;7.50;74.10;;;;;;4993655;28;20554;-51
2023/03/07 04:58:57;;;;;;;9.13;8.00;;;7.50;74.10;;;;;;5002868;28;20046;-50
2023/03/07 05:01:24;;;;;;;12.65;8.27;;;7.50;74.10;;;;;;5012834;28;20513;-52
2023/03/07 05:04:01;;;;;;;12.60;9.07;;;7.50;74.10;;;;;;4992039;28;20042;-49
2023/03/07 05:06:28;;;;;;;12.15;8.43;;;7.50;74.40;;;;;;5007299;28;20034;-50
2023/03/07 05:08:58;;;;;;;10.10;8.43;;;7.50;74.20;;;;;;4993788;28;20065;-49
2023/03/07 05:11:28;;;;;;;10.35;7.95;;;7.50;74.20;;;;;;4999326;28;20060;-51
2023/03/07 05:14:02;;;;;;;11.02;8.52;;;7.50;74.20;;;;;;4997219;28;20498;-50
2023/03/07 05:16:32;;;;;;;10.90;8.27;;;7.50;74.10;;;;;;5000710;28;20417;-48
2023/03/07 05:19:00;;;;;;;11.32;8.90;;;7.50;74.10;;;;;;5014885;28;20041;-49
2023/03/07 05:21:40;;;;;;;13.32;8.52;;;7.50;74.10;;;;;;4991351;28;20136;-52
2023/03/07 05:24:07;;;;;;;14.95;8.98;;;7.50;74.10;;;;;;5018143;28;20045;-49
2023/03/07 05:26:38;;;;;;;10.38;7.95;;;7.50;74.30;;;;;;4999704;28;20407;-54
2023/03/07 05:29:06;;;;;;;10.88;8.57;;;7.50;74.30;;;;;;5000201;28;20045;-51
2023/03/07 05:31:36;;;;;;;11.60;8.50;;;7.50;74.10;;;;;;5010244;28;20042;-51
2023/03/07 05:34:04;;;;;;;12.93;9.35;;;7.50;74.10;;;;;;4996415;28;20037;-48
2023/03/07 05:36:33;;;;;;;13.57;9.80;;;7.50;74.20;;;;;;4999913;28;20046;-48
2023/03/07 05:39:00;;;;;;;13.82;9.35;;;7.50;74.20;;;;;;5020764;28;20460;-51
2023/03/07 05:41:29;;;;;;;11.45;8.90;;;7.50;74.30;;;;;;4990558;28;20038;-49
2023/03/07 05:43:57;;;;;;;11.88;8.82;;;7.50;74.40;;;;;;5005299;28;20045;-51
2023/03/07 05:46:26;;;;;;;12.73;9.55;;;7.50;74.40;;;;;;5015065;28;20422;-50
2023/03/07 05:48:56;;;;;;;13.18;9.30;;;7.50;74.60;;;;;;5023349;28;20132;-50
2023/03/07 05:51:30;;;;;;;13.10;9.82;;;7.50;74.50;;;;;;4996922;28;20414;-49
2023/03/07 05:53:57;;;;;;;13.43;9.68;;;7.50;74.40;;;;;;5013058;28;20103;-50
2023/03/07 05:56:27;;;;;;;13.32;8.90;;;7.50;74.50;;;;;;5011288;28;20075;-54
2023/03/07 05:58:58;;;;;;;14.30;9.57;;;7.50;74.60;;;;;;5017213;28;20088;-48
2023/03/07 06:01:25;;;;;;;13.43;9.57;;;7.50;74.60;;;;;;5029688;28;20113;-49
2023/03/07 06:03:56;;;;;;;14.55;9.82;;;7.50;74.70;;;;;;5031733;28;20057;-53
2023/03/07 06:06:25;;;;;;;13.80;9.90;;;7.50;74.60;;;;;;5006075;28;20046;-49
2023/03/07 06:08:54;;;;;;;17.30;10.07;;;7.50;74.60;;;;;;4992105;28;20617;-49
2023/03/07 06:11:26;;;;;;;11.73;9.35;;;7.50;74.50;;;;;;5024149;28;20182;-52
2023/03/07 06:14:02;;;;;;;17.83;11.32;;;7.50;74.60;;;;;;5013391;28;20529;-49
2023/03/07 06:16:31;;;;;;;14.63;10.18;;;7.50;74.50;;;;;;5013636;28;20046;-51
2023/03/07 06:19:01;;;;;;;14.05;10.05;;;7.50;74.60;;;;;;5028789;28;20044;-49
2023/03/07 06:21:28;;;;;;;13.48;9.25;;;7.50;74.60;;;;;;5018005;28;20038;-52
2023/03/07 06:23:57;;;;;;;14.52;9.55;;;7.50;74.50;;;;;;5026482;28;20132;-48
2023/03/07 06:26:28;;;;;;;13.27;9.57;;;7.50;75.20;;;;;;5015107;28;20045;-49
2023/03/07 06:28:57;;;;;;;12.80;9.47;;;7.50;74.60;;;;;;5017846;28;20042;-49
2023/03/07 06:31:32;;;;;;;13.70;9.45;;;7.50;74.50;;;;;;5003926;28;20681;-53
2023/03/07 06:34:01;;;;;;;13.98;9.05;;;7.50;74.60;;;;;;5021523;28;20049;-50
2023/03/07 06:36:28;;;;;;;16.63;9.50;;;7.50;74.60;;;;;;5005522;28;20042;-49
2023/03/07 06:38:58;;;;;;;13.13;9.77;;;7.50;74.60;;;;;;5028690;28;20127;-49
2023/03/07 06:41:30;;;;;;;13.95;9.57;;;7.50;74.60;;;;;;5002575;28;20052;-51
2023/03/07 06:43:59;;;;;;;14.82;10.13;;;7.50;74.60;;;;;;4983337;28;20073;-50
2023/03/07 06:46:29;;;;;;;11.60;9.10;;;7.50;74.60;;;;;;5000620;28;20049;-51
2023/03/07 06:48:57;;;;;;;13.60;9.98;;;7.60;74.80;;;;;;5011195;28;20081;-49
2023/03/07 06:51:25;;;;;;;13.77;9.38;;;7.60;74.80;;;;;;5008164;28;20141;-48
2023/03/07 06:53:57;;;;;;;16.08;10.30;;;7.60;74.70;;;;;;5005214;28;20073;-49
2023/03/07 06:56:30;;;;;;;11.90;8.70;;;7.60;74.70;;;;;;5004448;28;20049;-52
2023/03/07 06:59:01;;;;;;;15.70;10.00;;;7.60;74.60;;;;;;5012381;28;20510;-49
2023/03/07 07:01:27;;;;;;;13.00;9.73;;;7.60;74.50;;;;;;5012375;28;20053;-49
2023/03/07 07:03:56;;;;;;;16.30;9.90;;;7.60;74.60;;;;;;5023371;28;20589;-49
2023/03/07 07:06:26;;;;;;;12.82;9.27;;;7.60;74.50;;;;;;4996098;28;20041;-49
2023/03/07 07:09:00;;;;;;;13.00;9.50;;;7.60;74.50;;;;;;5009217;28;20525;-50
2023/03/07 07:11:31;;;;;;;14.23;10.43;;;7.60;74.40;;;;;;5011322;28;20045;-51
2023/03/07 07:14:00;;;;;;;13.13;10.00;;;7.70;74.50;;;;;;5009498;28;20050;-51
2023/03/07 07:16:27;;;;;;;14.55;10.25;;;7.70;74.50;;;;;;5028453;28;20041;-49
2023/03/07 07:18:55;;;;;;;13.20;9.45;;;7.70;74.50;;;;;;5027370;28;20041;-49
2023/03/07 07:21:23;;;;;;;14.77;9.90;;;7.70;74.50;;;;;;4994228;28;20134;-48
2023/03/07 07:23:57;;;;;;;14.80;10.02;;;7.70;74.60;;;;;;5007024;28;20089;-51
2023/03/07 07:26:25;;;;;;;14.60;9.27;;;7.70;74.50;;;;;;5003294;28;20445;-51
2023/03/07 07:28:52;;;;;;;13.63;10.00;;;7.70;75.00;;;;;;5028511;28;20042;-49
2023/03/07 07:31:22;;;;;;;12.90;9.30;;;7.70;74.40;;;;;;5014536;28;20467;-49
2023/03/07 07:33:51;;;;;;;12.98;9.10;;;7.80;74.50;;;;;;5018980;28;20575;-49
2023/03/07 07:36:24;;;;;;;12.18;8.70;;;7.80;74.40;;;;;;4996321;28;20044;-50
2023/03/07 07:38:53;;;;;;;;;;;7.80;74.40;;;;;;5010398;28;20045;-50
2023/03/07 07:41:20;;;;;;;12.38;7.88;;;7.90;74.80;;;;;;5012046;28;20321;-48
2023/03/07 07:43:52;;;;;;;13.07;8.25;;;7.80;73.80;;;;;;5006405;28;20056;-50
2023/03/07 07:46:31;;;;;;;10.98;7.93;;;7.90;73.90;;;;;;4985603;28;20049;-48
2023/03/07 07:49:00;;;;;;;10.70;8.18;;;7.90;74.00;;;;;;5011428;28;20053;-48
2023/03/07 07:51:29;;;;;;;11.82;8.48;;;7.90;74.10;;;;;;5014783;28;20577;-50
2023/03/07 07:54:04;;;;;;;11.63;7.82;;;7.90;73.90;;;;;;5010191;28;20046;-48
2023/03/07 07:56:33;;;;;;;9.85;8.15;;;7.90;74.00;;;;;;5009098;28;20042;-50
2023/03/07 07:59:03;;;;;;;10.45;8.77;;;7.90;74.00;;;;;;5018458;28;20124;-50
2023/03/07 08:01:30;;;;;;;11.38;9.02;;;7.90;73.90;;;;;;5011858;28;20049;-49
2023/03/07 08:03:56;;;;;;;11.15;8.43;;;7.90;73.90;;;;;;5028866;28;20060;-48
2023/03/07 08:06:28;;;;;;;11.68;9.02;;;7.90;73.90;;;;;;4992895;28;20038;-51
2023/03/07 08:08:58;;;;;;;11.68;7.85;;;7.90;73.90;;;;;;5020619;28;20618;-48
2023/03/07 08:11:25;;;;;;;9.70;8.57;;;7.90;73.90;;;;;;5028677;28;20045;-49
2023/03/07 08:13:52;;;;;;;11.65;7.90;;;7.90;73.70;;;;;;5025600;28;20414;-53
2023/03/07 08:16:21;;;;;;;10.75;8.35;;;7.90;74.40;;;;;;5006101;28;20084;-48
2023/03/07 08:18:51;;;;;;;10.35;7.63;;;8.00;73.80;;;;;;5026107;28;20047;-50
2023/03/07 08:21:30;;;;;;;9.43;7.70;;;8.00;74.40;;;;;;5015047;28;20084;-50
2023/03/07 08:24:02;;;;;;;9.57;7.68;;;8.00;73.60;;;;;;5022758;28;20429;-50
2023/03/07 08:26:35;;;;;;;10.50;7.75;;;8.00;73.30;;;;;;5028266;28;20545;-51
2023/03/07 08:29:04;;;;;;;10.70;7.60;;;8.00;73.30;;;;;;5024884;28;20053;-48
2023/03/07 08:31:32;;;;;;;9.48;7.35;;;8.00;73.30;;;;;;5017169;28;20053;-49
2023/03/07 08:34:03;;;;;;;10.43;7.85;;;8.00;73.30;;;;;;5028117;28;20104;-52
2023/03/07 08:36:32;;;;;;;10.77;8.10;;;8.00;74.20;;;;;;5028642;28;20453;-48
2023/03/07 08:39:02;;;;;;;10.35;8.25;;;8.00;73.30;;;;;;5007946;28;20092;-49
2023/03/07 08:41:28;;;;;;;12.95;8.07;;;8.00;73.30;;;;;;5024081;28;20033;-49
2023/03/07 08:43:57;;;;;;;9.90;7.90;;;8.00;73.30;;;;;;5028211;28;20057;-51
2023/03/07 08:46:26;;;;;;;10.27;7.82;;;8.00;73.40;;;;;;5013031;28;20045;-48
2023/03/07 08:48:55;;;;;;;10.48;7.97;;;8.00;73.30;;;;;;5028111;28;20051;-49
2023/03/07 08:51:22;;;;;;;11.27;8.88;;;8.00;73.30;;;;;;5011930;28;20453;-51
2023/03/07 08:53:55;;;;;;;9.85;7.97;;;8.00;73.40;;;;;;5025435;28;20582;-51
2023/03/07 08:56:22;;;;;;;10.07;7.55;;;8.00;73.60;;;;;;5028007;28;20037;-48
2023/03/07 08:58:52;;;;;;;10.57;8.63;;;8.00;73.80;;;;;;5011628;28;20406;-49
2023/03/07 09:01:19;;;;;;;9.82;8.27;;;8.00;73.90;;;;;;5028717;28;20048;-49
2023/03/07 09:03:46;;;;;;;9.98;8.23;;;8.00;73.90;;;;;;5028341;28;20056;-53
2023/03/07 09:06:20;;;;;;;9.75;7.82;;;8.00;74.00;;;;;;5010649;28;20054;-51
2023/03/07 09:08:50;;;;;;;7.40;5.95;;;7.90;74.30;;;;;;5011910;28;20045;-56
2023/03/07 09:11:20;;;;;;;8.02;4.47;;;7.90;74.30;;;;;;5001027;28;20046;-52
2023/03/07 09:13:47;;;;;;;4.68;3.47;;;7.90;74.20;;;;;;5025493;28;20037;-52
2023/03/07 09:16:21;;;;;;;4.00;3.42;;;7.80;73.80;;;;;;5023492;28;20072;-50
2023/03/07 09:18:51;;;;;;;6.78;4.10;;;7.80;74.10;;;;;;5012052;28;20034;-50
2023/03/07 09:21:18;;;;;;;5.05;3.95;;;7.70;74.30;;;;;;5018120;28;20069;-49
2023/03/07 09:23:48;;;;;;;4.45;3.72;;;7.60;74.60;;;;;;5019171;28;20075;-52
2023/03/07 09:26:15;;;;;;;4.30;3.60;;;7.60;74.50;;;;;;5028335;28;20041;-50
2023/03/07 09:28:44;;;;;;;4.07;3.28;;;7.60;74.70;;;;;;5010956;28;20051;-51
2023/03/07 09:31:13;;;;;;;5.32;3.47;;;7.50;74.60;;;;;;5013105;28;20053;-48
2023/03/07 09:33:42;;;;;;;4.00;3.53;;;7.40;74.80;;;;;;5027780;28;20048;-51
2023/03/07 09:36:19;;;;;;;3.47;2.95;;;7.40;74.90;;;;;;5019507;28;20076;-51
2023/03/07 09:38:48;;;;;;;2.80;2.55;;;7.30;75.00;;;;;;5029181;28;20034;-49
2023/03/07 09:41:50;;;;;;;3.17;2.88;;;7.30;74.80;;;;;;5014401;28;20042;-53
2023/03/07 09:44:45;;;;;;;4.45;2.97;;;7.20;74.80;;;;;;5013810;28;20091;-50
2023/03/07 09:47:47;;;;;;;3.83;2.92;;;7.10;74.70;;;;;;4995289;28;20052;-51
2023/03/07 09:50:33;;;;;;;2.08;1.73;;;7.00;75.10;;;;;;5014626;28;20038;-54
2023/03/07 09:53:04;;;;;;;1.98;1.55;;;6.90;74.90;;;;;;5014364;28;20518;-48
2023/03/07 09:55:31;;;;;;;1.85;1.42;;;6.80;74.90;;;;;;5029542;28;20117;-50
2023/03/07 09:58:03;;;;;;;1.48;1.23;;;6.80;74.90;;;;;;4996423;28;20406;-48
2023/03/07 10:00:41;;;;;;;2.63;2.08;;;6.70;74.90;;;;;;5029854;28;20033;-48
2023/03/07 10:03:26;;;;;;;1.13;1.02;;;6.60;75.10;;;;;;5032054;28;20559;-51
2023/03/07 10:05:58;;;;;;;2.50;1.45;;;6.50;75.30;;;;;;5021276;28;20418;-50
2023/03/07 10:08:31;;;;;;;1.58;1.02;;;6.50;75.30;;;;;;5020277;28;20046;-51
2023/03/07 10:11:18;;;;;;;1.95;1.10;;;6.40;75.60;;;;;;5032333;28;20456;-50
2023/03/07 10:13:47;;;;;;;1.40;1.10;;;6.40;75.80;;;;;;5028094;28;20061;-48
2023/03/07 10:16:32;;;;;;;1.52;1.27;;;6.40;75.80;;;;;;5016225;28;20037;-51
2023/03/07 10:19:03;;;;;;;1.30;1.08;;;6.40;76.40;;;;;;5026874;28;20104;-47
2023/03/07 10:21:38;;;;;;;1.52;1.17;;;6.30;76.40;;;;;;5005128;28;20034;-51
2023/03/07 10:24:04;;;;;;;1.20;1.10;;;6.40;76.70;;;;;;5025437;28;20073;-53
2023/03/07 10:26:47;;;;;;;1.00;1.00;;;6.40;76.80;;;;;;5031579;28;20041;-49
2023/03/07 10:29:25;;;;;;;1.83;1.15;;;6.40;76.90;;;;;;5006211;28;20037;-53
2023/03/07 10:32:11;;;;;;;1.38;1.20;;;6.40;76.90;;;;;;5007861;28;20048;-50
2023/03/07 10:34:44;;;;;;;1.50;1.13;;;6.40;77.20;;;;;;5014763;28;20053;-48
2023/03/07 10:37:20;;;;;;;2.03;1.27;;;6.40;76.90;;;;;;5030874;28;20041;-51
2023/03/07 10:39:55;;;;;;;1.45;1.13;;;6.50;77.10;;;;;;5020597;28;20053;-50
2023/03/07 10:42:35;;;;;;;0.98;0.88;;;6.50;76.90;;;;;;5022708;28;20044;-49
2023/03/07 10:45:04;;;;;;;1.38;1.25;;;6.50;76.80;;;;;;5030600;28;20049;-51
2023/03/07 10:47:33;;;;;;;1.23;1.13;;;6.50;76.70;;;;;;5017203;28;20065;-48
2023/03/07 10:50:26;;;;;;;1.48;1.38;;;6.50;76.50;;;;;;5011735;28;20138;-51
2023/03/07 10:52:58;;;;;;;1.58;1.48;;;6.50;76.40;;;;;;5011057;28;20514;-55
2023/03/07 10:55:40;;;;;;;1.45;1.35;;;6.50;76.30;;;;;;5030033;28;20079;-52
2023/03/07 10:58:12;;;;;;;1.58;1.13;;;6.50;76.50;;;;;;5012745;28;20193;-50
2023/03/07 11:00:39;;;;;;;1.42;1.05;;;6.50;76.80;;;;;;5027705;28;20033;-53
2023/03/07 11:03:24;;;;;;;2.33;1.60;;;6.50;76.90;;;;;;5022293;28;20037;-49
2023/03/07 11:05:53;;;;;;;1.60;1.10;;;6.50;77.50;;;;;;5020471;28;20069;-50
2023/03/07 11:08:32;;;;;;;1.90;1.60;;;6.50;77.10;;;;;;5011194;28;20095;-49
2023/03/07 11:11:03;;;;;;;1.63;1.40;;;6.60;77.20;;;;;;5030258;28;20076;-51
2023/03/07 11:13:31;;;;;;;1.30;1.20;;;6.60;77.00;;;;;;5030507;28;20045;-52
2023/03/07 11:16:18;;;;;;;1.58;1.40;;;6.60;77.00;;;;;;5000866;28;20038;-53
2023/03/07 11:18:48;;;;;;;2.15;1.73;;;6.70;77.70;;;;;;5015779;28;20037;-49
2023/03/07 11:21:31;;;;;;;1.45;1.33;;;6.70;77.20;;;;;;5006151;28;20048;-48
2023/03/07 11:24:01;;;;;;;2.17;1.80;;;6.70;77.30;;;;;;5020654;28;20034;-48
2023/03/07 11:26:32;;;;;;;3.85;1.83;;;6.70;77.20;;;;;;5029948;28;20047;-50
2023/03/07 11:29:13;;;;;;;2.22;1.95;;;6.70;77.30;;;;;;5025920;28;20048;-49
2023/03/07 11:32:11;;;;;;;2.30;1.88;;;6.80;77.60;;;;;;5021065;28;20083;-49
2023/03/07 11:34:50;;;;;;;1.58;1.48;;;6.80;77.50;;;;;;5016595;28;20037;-51
2023/03/07 11:37:28;;;;;;;1.90;1.75;;;6.80;77.50;;;;;;5020279;28;20037;-48
2023/03/07 11:40:24;;;;;;;3.13;2.33;;;6.80;77.20;;;;;;5021369;28;20115;-47
2023/03/07 11:43:12;;;;;;;2.88;1.80;;;6.90;77.40;;;;;;5030839;28;20045;-48
2023/03/07 11:46:08;;;;;;;3.33;2.55;;;6.90;77.20;;;;;;5014292;28;20449;-50
2023/03/07 11:49:03;;;;;;;1.85;1.63;;;6.90;77.10;;;;;;5018670;28;20041;-48
2023/03/07 11:51:56;;;;;;;2.28;1.95;;;6.90;77.20;;;;;;5000335;28;20103;-53
2023/03/07 11:54:39;;;;;;;2.05;1.67;;;6.90;76.70;;;;;;5007275;28;20124;-50
2023/03/07 11:57:37;;;;;;;2.20;2.00;;;6.90;76.70;;;;;;5020806;28;20100;-49
2023/03/07 12:00:44;;;;;;;1.70;1.60;;;6.90;76.80;;;;;;5023303;28;20042;-50
2023/03/07 12:03:33;;;;;;;2.15;1.95;;;6.90;77.30;;;;;;5013571;28;20054;-52
2023/03/07 12:06:23;;;;;;;2.00;1.60;;;6.90;77.00;;;;;;5012631;28;20096;-53
2023/03/07 12:09:03;;;;;;;1.88;1.73;;;6.90;77.40;;;;;;5023528;28;20038;-51
2023/03/07 12:11:48;;;;;;;2.05;1.60;;;6.90;77.30;;;;;;5030088;28;20095;-52
2023/03/07 12:14:31;;;;;;;1.63;1.50;;;6.90;77.20;;;;;;5029776;28;20045;-51
2023/03/07 12:17:38;;;;;;;2.95;2.00;;;7.00;77.50;;;;;;5008888;28;20084;-50
2023/03/07 12:20:13;;;;;;;2.75;1.92;;;7.00;77.80;;;;;;5027019;28;20041;-53
2023/03/07 12:23:01;;;;;;;2.25;1.80;;;7.00;77.40;;;;;;5010469;28;20041;-50
2023/03/07 12:25:35;;;;;;;2.10;1.90;;;7.00;77.20;;;;;;5014672;28;20033;-52
2023/03/07 12:28:19;;;;;;;2.22;2.03;;;7.10;77.40;;;;;;5028833;28;20056;-52
2023/03/07 12:31:04;;;;;;;3.03;2.13;;;7.10;77.50;;;;;;5009138;28;20600;-48
2023/03/07 12:33:45;;;;;;;2.08;1.88;;;7.10;77.40;;;;;;5016483;28;20474;-49
2023/03/07 12:36:27;;;;;;;2.40;2.20;;;7.10;77.40;;;;;;5026380;28;20079;-52
2023/03/07 12:39:00;;;;;;;2.75;2.22;;;7.20;77.40;;;;;;5017777;28;20034;-47
2023/03/07 12:41:49;;;;;;;2.53;2.33;;;7.20;77.10;;;;;;5014075;28;20041;-50
2023/03/07 12:44:57;;;;;;;2.53;2.20;;;7.20;77.50;;;;;;5028987;28;20402;-50
2023/03/07 12:47:55;;;;;;;2.90;2.15;;;7.20;77.40;;;;;;5015035;28;20409;-51
2023/03/07 12:51:00;;;;;;;3.58;2.90;;;7.30;77.30;;;;;;5016201;28;20072;-49
2023/03/07 12:53:38;;;;;;;2.58;2.38;;;7.30;77.50;;;;;;5014512;28;20116;-51
2023/03/07 12:56:19;;;;;;;3.50;2.50;;;7.30;77.10;;;;;;5028385;28;20133;-48
2023/03/07 12:59:13;;;;;;;3.03;2.15;;;7.30;77.00;;;;;;5012312;28;20037;-50
2023/03/07 13:02:04;;;;;;;2.88;2.50;;;7.30;76.90;;;;;;5017289;28;20037;-49
2023/03/07 13:04:36;;;;;;;2.42;2.22;;;7.30;76.80;;;;;;5011659;28;20038;-48
2023/03/07 13:07:17;;;;;;;2.17;1.98;;;7.40;76.80;;;;;;5010830;28;20042;-49
2023/03/07 13:09:51;;;;;;;2.83;2.38;;;7.40;77.20;;;;;;5026341;28;20049;-49
2023/03/07 13:12:31;;;;;;;2.83;2.63;;;7.30;77.10;;;;;;5027734;28;20049;-49
2023/03/07 13:15:29;;;;;;;2.85;2.63;;;7.30;77.00;;;;;;5029368;28;20044;-49
2023/03/07 13:18:01;;;;;;;3.30;3.00;;;7.40;77.00;;;;;;5012412;28;20085;-49
2023/03/07 13:20:37;;;;;;;2.47;2.28;;;7.40;76.90;;;;;;5004830;28;20088;-50
2023/03/07 13:23:20;;;;;;;2.85;2.60;;;7.40;76.80;;;;;;5007568;28;20525;-51